sensor_id;sensor_type;location;lat;lon;timestamp;pressure;altitude;pressure_sealevel;temperature;humidity
25658;BME280;13517;59.320;18.042;2022-10-16T00:01:19;100080.09;;;12.04;100.00
25658;BME280;13517;59.320;18.042;2022-10-16T00:03:46;100070.34;;;12.01;100.00
25658;BME280;13517;59.320;18.042;2022-10-16T00:06:12;100089.06;;;12.04;100.00
25658;BME280;13517;59.320;18.042;2022-10-16T00:08:39;100070.59;;;11.98;100.00
25658;BME280;13517;59.320;18.042;2022-10-16T00:11:06;100074.03;;;12.00;100.00
25658;BME280;13517;59.320;18.042;2022-10-16T00:13:33;100082.16;;;12.00;100.00
25658;BME280;13517;59.320;18.042;2022-10-16T00:16:00;100076.84;;;11.98;100.00
25658;BME280;13517;59.320;18.042;2022-10-16T00:18:26;100048.94;;;11.75;100.00
25658;BME280;13517;59.320;18.042;2022-10-16T00:20:52;100063.97;;;11.91;100.00
25658;BME280;13517;59.320;18.042;2022-10-16T00:23:17;100054.97;;;11.90;100.00
25658;BME280;13517;59.320;18.042;2022-10-16T00:25:43;100035.56;;;11.74;100.00
25658;BME280;13517;59.320;18.042;2022-10-16T00:28:08;100070.00;;;11.94;100.00
25658;BME280;13517;59.320;18.042;2022-10-16T00:30:37;100044.31;;;11.77;100.00
25658;BME280;13517;59.320;18.042;2022-10-16T00:33:03;100032.00;;;11.73;100.00
25658;BME280;13517;59.320;18.042;2022-10-16T00:35:28;100074.53;;;11.94;100.00
25658;BME280;13517;59.320;18.042;2022-10-16T00:37:54;100054.47;;;11.85;100.00
25658;BME280;13517;59.320;18.042;2022-10-16T00:40:19;100057.81;;;11.89;100.00
25658;BME280;13517;59.320;18.042;2022-10-16T00:42:45;100052.38;;;11.89;100.00
25658;BME280;13517;59.320;18.042;2022-10-16T00:45:10;100031.50;;;11.79;100.00
25658;BME280;13517;59.320;18.042;2022-10-16T00:47:45;100043.78;;;11.83;100.00
25658;BME280;13517;59.320;18.042;2022-10-16T00:50:29;100048.47;;;11.81;100.00
25658;BME280;13517;59.320;18.042;2022-10-16T00:52:56;100045.25;;;11.76;100.00
25658;BME280;13517;59.320;18.042;2022-10-16T00:55:23;100027.31;;;11.75;100.00
25658;BME280;13517;59.320;18.042;2022-10-16T00:57:49;100040.34;;;11.81;100.00
25658;BME280;13517;59.320;18.042;2022-10-16T01:00:19;100035.19;;;11.67;100.00
25658;BME280;13517;59.320;18.042;2022-10-16T01:02:51;100061.25;;;11.79;100.00
25658;BME280;13517;59.320;18.042;2022-10-16T01:05:16;100029.53;;;11.58;100.00
25658;BME280;13517;59.320;18.042;2022-10-16T01:10:35;100050.19;;;11.71;100.00
25658;BME280;13517;59.320;18.042;2022-10-16T01:13:11;100044.03;;;11.69;100.00
25658;BME280;13517;59.320;18.042;2022-10-16T01:15:58;100050.69;;;11.65;100.00
25658;BME280;13517;59.320;18.042;2022-10-16T01:18:45;100020.44;;;11.60;100.00
25658;BME280;13517;59.320;18.042;2022-10-16T01:21:29;100044.91;;;11.58;100.00
25658;BME280;13517;59.320;18.042;2022-10-16T01:25:03;100046.38;;;11.62;100.00
25658;BME280;13517;59.320;18.042;2022-10-16T01:27:25;100049.34;;;11.59;100.00
25658;BME280;13517;59.320;18.042;2022-10-16T01:32:58;100050.91;;;11.62;100.00
25658;BME280;13517;59.320;18.042;2022-10-16T01:35:36;100056.31;;;11.62;100.00
25658;BME280;13517;59.320;18.042;2022-10-16T01:38:08;100055.13;;;11.66;100.00
25658;BME280;13517;59.320;18.042;2022-10-16T01:40:39;100068.16;;;11.72;100.00
25658;BME280;13517;59.320;18.042;2022-10-16T01:43:12;100067.28;;;11.71;100.00
25658;BME280;13517;59.320;18.042;2022-10-16T01:45:40;100068.03;;;11.74;100.00
25658;BME280;13517;59.320;18.042;2022-10-16T01:48:07;100032.00;;;11.50;100.00
25658;BME280;13517;59.320;18.042;2022-10-16T01:50:38;100062.75;;;11.72;100.00
25658;BME280;13517;59.320;18.042;2022-10-16T01:53:07;100067.28;;;11.71;100.00
25658;BME280;13517;59.320;18.042;2022-10-16T01:55:38;100065.22;;;11.64;100.00
25658;BME280;13517;59.320;18.042;2022-10-16T01:58:08;100046.50;;;11.49;100.00
25658;BME280;13517;59.320;18.042;2022-10-16T02:00:38;100069.63;;;11.65;100.00
25658;BME280;13517;59.320;18.042;2022-10-16T02:03:05;100066.06;;;11.64;100.00
25658;BME280;13517;59.320;18.042;2022-10-16T02:05:37;100036.69;;;11.48;100.00
25658;BME280;13517;59.320;18.042;2022-10-16T02:08:05;100047.50;;;11.60;100.00
25658;BME280;13517;59.320;18.042;2022-10-16T02:10:31;100035.44;;;11.52;100.00
25658;BME280;13517;59.320;18.042;2022-10-16T02:13:00;100003.00;;;11.29;100.00
25658;BME280;13517;59.320;18.042;2022-10-16T02:15:28;100040.84;;;11.52;100.00
25658;BME280;13517;59.320;18.042;2022-10-16T02:17:53;100022.78;;;11.41;100.00
25658;BME280;13517;59.320;18.042;2022-10-16T02:20:25;100034.09;;;11.47;100.00
25658;BME280;13517;59.320;18.042;2022-10-16T02:22:51;100037.66;;;11.47;100.00
25658;BME280;13517;59.320;18.042;2022-10-16T02:25:32;100047.25;;;11.51;100.00
25658;BME280;13517;59.320;18.042;2022-10-16T02:28:07;100016.75;;;11.38;100.00
25658;BME280;13517;59.320;18.042;2022-10-16T02:30:43;100026.81;;;11.47;100.00
25658;BME280;13517;59.320;18.042;2022-10-16T02:33:11;100030.75;;;11.54;100.00
25658;BME280;13517;59.320;18.042;2022-10-16T02:35:40;100014.66;;;11.41;100.00
25658;BME280;13517;59.320;18.042;2022-10-16T02:38:07;100035.69;;;11.49;100.00
25658;BME280;13517;59.320;18.042;2022-10-16T02:40:33;100064.09;;;11.66;100.00
25658;BME280;13517;59.320;18.042;2022-10-16T02:42:59;100046.03;;;11.55;100.00
25658;BME280;13517;59.320;18.042;2022-10-16T02:45:25;100037.16;;;11.53;100.00
25658;BME280;13517;59.320;18.042;2022-10-16T02:47:51;100046.13;;;11.65;100.00
25658;BME280;13517;59.320;18.042;2022-10-16T02:50:16;100047.34;;;11.72;100.00
25658;BME280;13517;59.320;18.042;2022-10-16T02:52:42;100007.28;;;11.55;100.00
25658;BME280;13517;59.320;18.042;2022-10-16T02:55:08;100031.25;;;11.71;100.00
25658;BME280;13517;59.320;18.042;2022-10-16T02:57:33;100023.59;;;11.76;100.00
25658;BME280;13517;59.320;18.042;2022-10-16T02:59:59;100025.59;;;11.74;100.00
25658;BME280;13517;59.320;18.042;2022-10-16T03:02:25;100021.78;;;11.77;100.00
25658;BME280;13517;59.320;18.042;2022-10-16T03:04:51;100001.63;;;11.69;100.00
25658;BME280;13517;59.320;18.042;2022-10-16T03:07:16;99968.69;;;11.53;100.00
25658;BME280;13517;59.320;18.042;2022-10-16T03:09:41;99983.78;;;11.67;100.00
25658;BME280;13517;59.320;18.042;2022-10-16T03:12:07;100005.66;;;11.75;100.00
25658;BME280;13517;59.320;18.042;2022-10-16T03:14:33;100016.97;;;11.80;100.00
25658;BME280;13517;59.320;18.042;2022-10-16T03:16:59;99999.78;;;11.70;100.00
25658;BME280;13517;59.320;18.042;2022-10-16T03:19:24;99970.78;;;11.49;100.00
25658;BME280;13517;59.320;18.042;2022-10-16T03:21:49;99973.34;;;11.51;100.00
25658;BME280;13517;59.320;18.042;2022-10-16T03:24:15;99991.66;;;11.58;100.00
25658;BME280;13517;59.320;18.042;2022-10-16T03:26:40;99996.97;;;11.49;100.00
25658;BME280;13517;59.320;18.042;2022-10-16T03:29:06;99994.13;;;11.39;100.00
25658;BME280;13517;59.320;18.042;2022-10-16T03:31:32;99973.13;;;11.31;100.00
25658;BME280;13517;59.320;18.042;2022-10-16T03:33:57;100021.06;;;11.40;100.00
25658;BME280;13517;59.320;18.042;2022-10-16T03:36:23;100017.00;;;11.35;100.00
25658;BME280;13517;59.320;18.042;2022-10-16T03:38:48;100029.41;;;11.49;100.00
25658;BME280;13517;59.320;18.042;2022-10-16T03:41:14;99992.53;;;11.36;100.00
25658;BME280;13517;59.320;18.042;2022-10-16T03:43:39;99994.00;;;11.29;100.00
25658;BME280;13517;59.320;18.042;2022-10-16T03:46:05;100014.53;;;11.43;100.00
25658;BME280;13517;59.320;18.042;2022-10-16T03:48:30;100006.19;;;11.35;100.00
25658;BME280;13517;59.320;18.042;2022-10-16T03:50:57;99986.88;;;11.16;100.00
25658;BME280;13517;59.320;18.042;2022-10-16T03:53:23;99998.78;;;11.25;100.00
25658;BME280;13517;59.320;18.042;2022-10-16T03:55:48;99986.75;;;11.18;100.00
25658;BME280;13517;59.320;18.042;2022-10-16T03:58:14;99978.63;;;11.18;100.00
25658;BME280;13517;59.320;18.042;2022-10-16T04:00:43;99955.03;;;10.97;100.00
25658;BME280;13517;59.320;18.042;2022-10-16T04:03:09;99985.16;;;11.15;100.00
25658;BME280;13517;59.320;18.042;2022-10-16T04:05:35;99966.84;;;11.08;100.00
25658;BME280;13517;59.320;18.042;2022-10-16T04:08:01;99973.72;;;11.12;100.00
25658;BME280;13517;59.320;18.042;2022-10-16T04:10:26;99984.81;;;11.20;100.00
25658;BME280;13517;59.320;18.042;2022-10-16T04:12:51;99970.28;;;11.10;100.00
25658;BME280;13517;59.320;18.042;2022-10-16T04:15:19;99963.41;;;11.06;100.00
25658;BME280;13517;59.320;18.042;2022-10-16T04:17:45;99994.63;;;11.21;100.00
25658;BME280;13517;59.320;18.042;2022-10-16T04:20:10;99989.72;;;11.15;100.00
25658;BME280;13517;59.320;18.042;2022-10-16T04:22:35;99992.16;;;11.18;100.00
25658;BME280;13517;59.320;18.042;2022-10-16T04:25:01;99990.22;;;11.20;100.00
25658;BME280;13517;59.320;18.042;2022-10-16T04:27:27;100014.41;;;11.22;100.00
25658;BME280;13517;59.320;18.042;2022-10-16T04:29:53;99997.81;;;11.15;100.00
25658;BME280;13517;59.320;18.042;2022-10-16T04:32:19;100010.84;;;11.21;100.00
25658;BME280;13517;59.320;18.042;2022-10-16T04:34:44;99991.69;;;11.13;100.00
25658;BME280;13517;59.320;18.042;2022-10-16T04:37:09;99994.13;;;11.16;100.00
25658;BME280;13517;59.320;18.042;2022-10-16T04:39:35;99983.69;;;11.11;100.00
25658;BME280;13517;59.320;18.042;2022-10-16T04:42:00;100008.00;;;11.23;100.00
25658;BME280;13517;59.320;18.042;2022-10-16T04:44:26;99996.84;;;11.16;100.00
25658;BME280;13517;59.320;18.042;2022-10-16T04:46:51;100000.53;;;11.15;100.00
25658;BME280;13517;59.320;18.042;2022-10-16T04:49:16;99981.34;;;11.07;100.00
25658;BME280;13517;59.320;18.042;2022-10-16T04:51:42;99967.81;;;10.95;100.00
25658;BME280;13517;59.320;18.042;2022-10-16T04:54:08;99965.00;;;10.97;100.00
25658;BME280;13517;59.320;18.042;2022-10-16T04:56:34;99995.22;;;11.13;100.00
25658;BME280;13517;59.320;18.042;2022-10-16T04:59:05;99995.34;;;11.12;100.00
25658;BME280;13517;59.320;18.042;2022-10-16T05:01:30;99980.13;;;10.99;100.00
25658;BME280;13517;59.320;18.042;2022-10-16T05:03:56;99969.38;;;10.86;100.00
25658;BME280;13517;59.320;18.042;2022-10-16T05:06:21;99991.16;;;10.96;100.00
25658;BME280;13517;59.320;18.042;2022-10-16T05:08:47;99980.59;;;10.93;100.00
25658;BME280;13517;59.320;18.042;2022-10-16T05:11:12;100011.81;;;11.09;100.00
25658;BME280;13517;59.320;18.042;2022-10-16T05:13:37;99964.47;;;10.80;100.00
25658;BME280;13517;59.320;18.042;2022-10-16T05:16:03;99986.00;;;10.93;100.00
25658;BME280;13517;59.320;18.042;2022-10-16T05:18:28;99992.88;;;10.97;100.00
25658;BME280;13517;59.320;18.042;2022-10-16T05:20:54;99950.84;;;10.82;100.00
25658;BME280;13517;59.320;18.042;2022-10-16T05:23:19;99994.25;;;11.03;100.00
25658;BME280;13517;59.320;18.042;2022-10-16T05:25:52;100008.50;;;11.05;100.00
25658;BME280;13517;59.320;18.042;2022-10-16T05:28:18;99999.41;;;11.06;100.00
25658;BME280;13517;59.320;18.042;2022-10-16T05:30:44;100004.06;;;11.04;100.00
25658;BME280;13517;59.320;18.042;2022-10-16T05:33:09;99965.09;;;10.84;100.00
25658;BME280;13517;59.320;18.042;2022-10-16T05:35:34;99980.34;;;10.96;100.00
25658;BME280;13517;59.320;18.042;2022-10-16T05:38:00;100002.72;;;11.10;100.00
25658;BME280;13517;59.320;18.042;2022-10-16T05:40:25;99997.78;;;11.03;100.00
25658;BME280;13517;59.320;18.042;2022-10-16T05:42:54;99978.63;;;10.95;100.00
25658;BME280;13517;59.320;18.042;2022-10-16T05:45:20;100005.31;;;11.11;100.00
25658;BME280;13517;59.320;18.042;2022-10-16T05:47:45;100000.53;;;11.15;100.00
25658;BME280;13517;59.320;18.042;2022-10-16T05:50:11;99972.97;;;10.98;100.00
25658;BME280;13517;59.320;18.042;2022-10-16T05:52:36;100002.97;;;11.18;100.00
25658;BME280;13517;59.320;18.042;2022-10-16T05:55:02;99998.66;;;11.15;100.00
25658;BME280;13517;59.320;18.042;2022-10-16T05:57:27;99995.13;;;11.15;100.00
25658;BME280;13517;59.320;18.042;2022-10-16T05:59:53;99998.06;;;11.23;100.00
25658;BME280;13517;59.320;18.042;2022-10-16T06:02:18;100008.88;;;11.23;100.00
25658;BME280;13517;59.320;18.042;2022-10-16T06:04:44;100016.88;;;11.25;100.00
25658;BME280;13517;59.320;18.042;2022-10-16T06:07:09;99983.06;;;11.08;100.00
25658;BME280;13517;59.320;18.042;2022-10-16T06:09:35;100029.78;;;11.33;100.00
25658;BME280;13517;59.320;18.042;2022-10-16T06:12:00;100031.38;;;11.35;100.00
25658;BME280;13517;59.320;18.042;2022-10-16T06:14:26;99998.53;;;11.17;100.00
25658;BME280;13517;59.320;18.042;2022-10-16T06:16:51;99998.19;;;11.10;100.00
25658;BME280;13517;59.320;18.042;2022-10-16T06:19:16;100029.28;;;11.39;100.00
25658;BME280;13517;59.320;18.042;2022-10-16T06:21:43;100023.88;;;11.39;100.00
25658;BME280;13517;59.320;18.042;2022-10-16T06:24:09;100006.69;;;11.28;100.00
25658;BME280;13517;59.320;18.042;2022-10-16T06:26:35;100026.81;;;11.47;100.00
25658;BME280;13517;59.320;18.042;2022-10-16T06:29:00;100021.28;;;11.37;100.00
25658;BME280;13517;59.320;18.042;2022-10-16T06:31:27;100028.06;;;11.54;100.00
25658;BME280;13517;59.320;18.042;2022-10-16T06:33:56;100010.84;;;11.44;100.00
25658;BME280;13517;59.320;18.042;2022-10-16T06:36:22;100016.25;;;11.44;100.00
25658;BME280;13517;59.320;18.042;2022-10-16T06:38:48;100049.69;;;11.66;100.00
25658;BME280;13517;59.320;18.042;2022-10-16T06:41:16;100016.88;;;11.48;100.00
25658;BME280;13517;59.320;18.042;2022-10-16T06:43:42;100037.16;;;11.65;100.00
25658;BME280;13517;59.320;18.042;2022-10-16T06:46:10;100052.75;;;11.72;100.00
25658;BME280;13517;59.320;18.042;2022-10-16T06:48:36;100049.72;;;11.77;100.00
25658;BME280;13517;59.320;18.042;2022-10-16T06:51:12;100044.53;;;11.74;100.00
25658;BME280;13517;59.320;18.042;2022-10-16T06:53:41;100016.50;;;11.64;100.00
25658;BME280;13517;59.320;18.042;2022-10-16T06:56:15;100039.00;;;11.76;100.00
25658;BME280;13517;59.320;18.042;2022-10-16T06:58:41;100045.53;;;11.84;100.00
25658;BME280;13517;59.320;18.042;2022-10-16T07:01:07;100057.56;;;11.92;100.00
25658;BME280;13517;59.320;18.042;2022-10-16T07:03:33;100061.00;;;11.94;100.00
25658;BME280;13517;59.320;18.042;2022-10-16T07:06:02;100050.56;;;11.89;100.00
25658;BME280;13517;59.320;18.042;2022-10-16T07:08:31;100026.09;;;11.79;100.00
25658;BME280;13517;59.320;18.042;2022-10-16T07:11:01;100065.69;;;12.03;100.00
25658;BME280;13517;59.320;18.042;2022-10-16T07:13:28;100056.56;;;12.04;100.00
25658;BME280;13517;59.320;18.042;2022-10-16T07:15:53;100056.94;;;12.11;100.00
25658;BME280;13517;59.320;18.042;2022-10-16T07:18:19;100056.69;;;12.14;100.00
25658;BME280;13517;59.320;18.042;2022-10-16T07:20:44;100058.78;;;12.22;100.00
25658;BME280;13517;59.320;18.042;2022-10-16T07:23:09;100053.59;;;12.19;100.00
25658;BME280;13517;59.320;18.042;2022-10-16T07:25:35;100062.31;;;12.22;100.00
25658;BME280;13517;59.320;18.042;2022-10-16T07:28:00;100039.00;;;12.10;100.00
25658;BME280;13517;59.320;18.042;2022-10-16T07:30:26;100073.63;;;12.28;100.00
25658;BME280;13517;59.320;18.042;2022-10-16T07:32:51;100049.91;;;12.20;100.00
25658;BME280;13517;59.320;18.042;2022-10-16T07:35:16;100041.53;;;12.11;100.00
25658;BME280;13517;59.320;18.042;2022-10-16T07:37:46;100074.41;;;12.30;100.00
25658;BME280;13517;59.320;18.042;2022-10-16T07:40:11;100059.00;;;12.19;100.00
25658;BME280;13517;59.320;18.042;2022-10-16T07:42:36;100093.19;;;12.31;100.00
25658;BME280;13517;59.320;18.042;2022-10-16T07:45:02;100038.22;;;12.08;100.00
25658;BME280;13517;59.320;18.042;2022-10-16T07:47:27;100089.38;;;12.34;100.00
25658;BME280;13517;59.320;18.042;2022-10-16T07:49:53;100052.97;;;12.15;100.00
25658;BME280;13517;59.320;18.042;2022-10-16T07:52:18;100051.63;;;12.21;100.00
25658;BME280;13517;59.320;18.042;2022-10-16T07:54:44;100072.28;;;12.33;100.00
25658;BME280;13517;59.320;18.042;2022-10-16T07:57:09;100077.09;;;12.30;100.00
25658;BME280;13517;59.320;18.042;2022-10-16T07:59:35;100072.53;;;12.30;100.00
25658;BME280;13517;59.320;18.042;2022-10-16T08:02:00;100073.75;;;12.26;100.00
25658;BME280;13517;59.320;18.042;2022-10-16T08:04:25;100065.91;;;12.23;100.00
25658;BME280;13517;59.320;18.042;2022-10-16T08:06:51;100070.59;;;12.21;100.00
25658;BME280;13517;59.320;18.042;2022-10-16T08:09:16;100081.38;;;12.32;100.00
25658;BME280;13517;59.320;18.042;2022-10-16T08:11:42;100058.78;;;12.22;100.00
25658;BME280;13517;59.320;18.042;2022-10-16T08:14:07;100094.41;;;12.38;100.00
25658;BME280;13517;59.320;18.042;2022-10-16T08:16:32;100098.84;;;12.39;100.00
25658;BME280;13517;59.320;18.042;2022-10-16T08:18:58;100057.16;;;12.19;100.00
25658;BME280;13517;59.320;18.042;2022-10-16T08:21:23;100046.72;;;12.15;100.00
25658;BME280;13517;59.320;18.042;2022-10-16T08:23:49;100101.31;;;12.43;100.00
25658;BME280;13517;59.320;18.042;2022-10-16T08:26:15;100109.16;;;12.46;100.00
25658;BME280;13517;59.320;18.042;2022-10-16T08:28:40;100062.47;;;12.21;100.00
25658;BME280;13517;59.320;18.042;2022-10-16T08:31:13;100110.66;;;12.50;100.00
25658;BME280;13517;59.320;18.042;2022-10-16T08:33:41;100108.66;;;12.52;100.00
25658;BME280;13517;59.320;18.042;2022-10-16T08:36:07;100097.34;;;12.47;100.00
25658;BME280;13517;59.320;18.042;2022-10-16T08:38:33;100085.78;;;12.45;100.00
25658;BME280;13517;59.320;18.042;2022-10-16T08:47:06;100095.44;;;12.70;100.00
25658;BME280;13517;59.320;18.042;2022-10-16T08:49:35;100107.34;;;12.79;100.00
25658;BME280;13517;59.320;18.042;2022-10-16T08:52:02;100094.78;;;12.78;100.00
25658;BME280;13517;59.320;18.042;2022-10-16T08:54:34;100111.88;;;12.90;100.00
25658;BME280;13517;59.320;18.042;2022-10-16T08:57:20;100109.78;;;12.82;100.00
25658;BME280;13517;59.320;18.042;2022-10-16T08:59:46;100109.78;;;12.82;100.00
25658;BME280;13517;59.320;18.042;2022-10-16T09:02:31;100119.69;;;12.72;100.00
25658;BME280;13517;59.320;18.042;2022-10-16T09:05:21;100113.50;;;12.81;100.00
25658;BME280;13517;59.320;18.042;2022-10-16T09:10:50;100125.81;;;12.85;100.00
25658;BME280;13517;59.320;18.042;2022-10-16T09:13:37;100112.13;;;12.87;100.00
25658;BME280;13517;59.320;18.042;2022-10-16T09:16:20;100116.41;;;12.89;100.00
25658;BME280;13517;59.320;18.042;2022-10-16T09:18:51;100121.06;;;12.99;100.00
25658;BME280;13517;59.320;18.042;2022-10-16T09:21:21;100108.84;;;13.04;100.00
25658;BME280;13517;59.320;18.042;2022-10-16T09:23:48;100095.16;;;13.06;100.00
25658;BME280;13517;59.320;18.042;2022-10-16T09:26:15;100102.44;;;13.27;100.00
25658;BME280;13517;59.320;18.042;2022-10-16T09:28:41;100109.66;;;13.38;100.00
25658;BME280;13517;59.320;18.042;2022-10-16T09:31:27;100111.88;;;13.32;100.00
25658;BME280;13517;59.320;18.042;2022-10-16T09:33:58;100109.66;;;13.38;100.00
25658;BME280;13517;59.320;18.042;2022-10-16T09:36:26;100124.22;;;13.37;100.00
25658;BME280;13517;59.320;18.042;2022-10-16T09:39:05;100120.16;;;13.31;100.00
25658;BME280;13517;59.320;18.042;2022-10-16T09:41:34;100098.13;;;13.24;100.00
25658;BME280;13517;59.320;18.042;2022-10-16T09:44:01;100086.22;;;13.15;100.00
25658;BME280;13517;59.320;18.042;2022-10-16T09:46:30;100114.31;;;13.35;100.00
25658;BME280;13517;59.320;18.042;2022-10-16T09:49:01;100109.06;;;13.34;100.00
25658;BME280;13517;59.320;18.042;2022-10-16T09:51:30;100107.34;;;13.33;100.00
25658;BME280;13517;59.320;18.042;2022-10-16T09:53:59;100110.75;;;13.35;100.00
25658;BME280;13517;59.320;18.042;2022-10-16T09:56:30;100094.31;;;13.27;100.00
25658;BME280;13517;59.320;18.042;2022-10-16T09:59:20;100121.03;;;13.31;100.00
25658;BME280;13517;59.320;18.042;2022-10-16T10:01:47;100106.00;;;13.27;100.00
25658;BME280;13517;59.320;18.042;2022-10-16T10:04:13;100064.91;;;12.89;100.00
25658;BME280;13517;59.320;18.042;2022-10-16T10:06:45;100113.81;;;13.20;100.00
25658;BME280;13517;59.320;18.042;2022-10-16T10:11:51;100105.47;;;13.12;100.00
25658;BME280;13517;59.320;18.042;2022-10-16T10:14:21;100115.56;;;13.10;100.00
25658;BME280;13517;59.320;18.042;2022-10-16T10:16:48;100115.84;;;13.07;100.00
25658;BME280;13517;59.320;18.042;2022-10-16T10:19:18;100117.16;;;13.13;100.00
25658;BME280;13517;59.320;18.042;2022-10-16T10:21:45;100121.94;;;13.20;100.00
25658;BME280;13517;59.320;18.042;2022-10-16T10:24:12;100102.75;;;13.12;100.00
25658;BME280;13517;59.320;18.042;2022-10-16T10:26:39;100092.72;;;13.24;100.00
25658;BME280;13517;59.320;18.042;2022-10-16T10:29:49;100087.47;;;13.32;100.00
25658;BME280;13517;59.320;18.042;2022-10-16T10:45:41;100118.38;;;13.62;100.00
25658;BME280;13517;59.320;18.042;2022-10-16T10:48:24;100117.13;;;13.67;100.00
25658;BME280;13517;59.320;18.042;2022-10-16T10:51:22;100114.13;;;13.70;100.00
25658;BME280;13517;59.320;18.042;2022-10-16T10:56:51;100110.50;;;13.91;100.00
25658;BME280;13517;59.320;18.042;2022-10-16T11:02:21;100110.78;;;13.87;100.00
25658;BME280;13517;59.320;18.042;2022-10-16T11:07:49;100096.81;;;13.61;100.00
25658;BME280;13517;59.320;18.042;2022-10-16T11:10:27;100099.78;;;13.58;100.00
25658;BME280;13517;59.320;18.042;2022-10-16T11:13:17;100101.78;;;13.56;100.00
25658;BME280;13517;59.320;18.042;2022-10-16T11:15:47;100096.06;;;13.59;100.00
25658;BME280;13517;59.320;18.042;2022-10-16T11:21:14;100085.50;;;13.56;100.00
25658;BME280;13517;59.320;18.042;2022-10-16T11:26:22;100078.47;;;13.84;100.00
25658;BME280;13517;59.320;18.042;2022-10-16T11:28:50;100067.66;;;13.94;100.00
25658;BME280;13517;59.320;18.042;2022-10-16T11:36:47;100064.16;;;14.23;100.00
25658;BME280;13517;59.320;18.042;2022-10-16T11:39:24;100075.91;;;14.34;100.00
25658;BME280;13517;59.320;18.042;2022-10-16T11:42:09;100076.06;;;14.42;100.00
25658;BME280;13517;59.320;18.042;2022-10-16T11:55:39;100062.22;;;13.94;100.00
25658;BME280;13517;59.320;18.042;2022-10-16T12:04:04;100045.66;;;13.97;100.00
25658;BME280;13517;59.320;18.042;2022-10-16T12:09:14;100035.41;;;14.11;100.00
25658;BME280;13517;59.320;18.042;2022-10-16T12:11:40;100008.53;;;14.08;100.00
25658;BME280;13517;59.320;18.042;2022-10-16T12:19:57;99999.09;;;14.12;100.00
25658;BME280;13517;59.320;18.042;2022-10-16T12:22:29;100024.28;;;14.34;100.00
25658;BME280;13517;59.320;18.042;2022-10-16T12:24:56;100019.31;;;14.39;100.00
25658;BME280;13517;59.320;18.042;2022-10-16T12:27:31;100010.72;;;14.43;100.00
25658;BME280;13517;59.320;18.042;2022-10-16T12:30:02;99991.69;;;14.34;100.00
25658;BME280;13517;59.320;18.042;2022-10-16T12:32:35;100001.53;;;14.25;100.00
25658;BME280;13517;59.320;18.042;2022-10-16T12:35:03;100001.53;;;14.15;100.00
25658;BME280;13517;59.320;18.042;2022-10-16T12:37:33;99996.81;;;14.07;100.00
25658;BME280;13517;59.320;18.042;2022-10-16T12:39:59;99996.38;;;14.02;100.00
25658;BME280;13517;59.320;18.042;2022-10-16T12:42:36;100001.66;;;14.03;100.00
25658;BME280;13517;59.320;18.042;2022-10-16T12:45:31;99959.00;;;13.74;100.00
25658;BME280;13517;59.320;18.042;2022-10-16T12:47:59;99995.09;;;13.96;100.00
25658;BME280;13517;59.320;18.042;2022-10-16T12:52:56;99980.31;;;13.79;100.00
25658;BME280;13517;59.320;18.042;2022-10-16T12:55:22;99973.16;;;13.78;100.00
25658;BME280;13517;59.320;18.042;2022-10-16T13:03:52;99981.63;;;13.85;100.00
25658;BME280;13517;59.320;18.042;2022-10-16T13:19:38;99940.75;;;13.77;100.00
25658;BME280;13517;59.320;18.042;2022-10-16T13:28:06;99937.47;;;13.83;100.00
25658;BME280;13517;59.320;18.042;2022-10-16T13:30:52;99936.69;;;13.71;100.00
25658;BME280;13517;59.320;18.042;2022-10-16T13:33:26;99930.69;;;13.67;100.00
25658;BME280;13517;59.320;18.042;2022-10-16T13:35:56;99945.81;;;13.60;100.00
25658;BME280;13517;59.320;18.042;2022-10-16T13:38:25;99938.25;;;13.54;100.00
25658;BME280;13517;59.320;18.042;2022-10-16T13:40:56;99889.44;;;13.23;100.00
25658;BME280;13517;59.320;18.042;2022-10-16T13:43:26;99909.44;;;13.31;100.00
25658;BME280;13517;59.320;18.042;2022-10-16T13:46:04;99901.31;;;13.31;100.00
25658;BME280;13517;59.320;18.042;2022-10-16T13:48:31;99894.03;;;13.32;100.00
25658;BME280;13517;59.320;18.042;2022-10-16T13:51:02;99915.16;;;13.38;100.00
25658;BME280;13517;59.320;18.042;2022-10-16T13:53:30;99895.47;;;13.36;100.00
25658;BME280;13517;59.320;18.042;2022-10-16T13:55:56;99911.75;;;13.36;100.00
25658;BME280;13517;59.320;18.042;2022-10-16T13:58:21;99857.44;;;13.16;100.00
25658;BME280;13517;59.320;18.042;2022-10-16T14:01:17;99895.19;;;13.39;100.00
25658;BME280;13517;59.320;18.042;2022-10-16T14:03:44;99907.47;;;13.43;100.00
25658;BME280;13517;59.320;18.042;2022-10-16T14:06:19;99911.75;;;13.36;100.00
25658;BME280;13517;59.320;18.042;2022-10-16T14:08:57;99881.47;;;13.31;100.00
25658;BME280;13517;59.320;18.042;2022-10-16T14:11:24;99907.31;;;13.35;100.00
25658;BME280;13517;59.320;18.042;2022-10-16T14:13:51;99916.88;;;13.29;100.00
25658;BME280;13517;59.320;18.042;2022-10-16T14:16:23;99892.69;;;13.16;100.00
25658;BME280;13517;59.320;18.042;2022-10-16T14:21:26;99897.28;;;13.16;100.00
25658;BME280;13517;59.320;18.042;2022-10-16T14:23:52;99892.38;;;13.10;100.00
25658;BME280;13517;59.320;18.042;2022-10-16T14:26:20;99881.91;;;12.95;100.00
25658;BME280;13517;59.320;18.042;2022-10-16T14:28:48;99905.19;;;12.98;100.00